createdAt,value
2018-03-07T00:02:06.207Z,21.55
2018-03-07T00:04:35.304Z,23.90
2018-03-07T00:07:04.107Z,22.52
2018-03-07T00:09:33.799Z,23.12
2018-03-07T00:12:02.138Z,22.40
2018-03-07T00:14:31.134Z,21.60
2018-03-07T00:16:59.447Z,23.35
2018-03-07T00:19:27.768Z,20.92
2018-03-07T00:21:56.059Z,20.02
2018-03-07T00:24:24.273Z,21.00
2018-03-07T00:26:52.549Z,19.80
2018-03-07T00:29:22.452Z,22.25
2018-03-07T00:31:50.675Z,20.77
2018-03-07T00:34:19.776Z,19.33
2018-03-07T00:36:48.511Z,17.37
2018-03-07T00:39:16.730Z,19.08
2018-03-07T00:41:44.960Z,17.67
2018-03-07T00:44:13.326Z,18.75
2018-03-07T00:46:42.438Z,18.05
2018-03-07T00:49:10.710Z,17.98
2018-03-07T00:51:39.080Z,19.48
2018-03-07T00:54:07.236Z,17.70
2018-03-07T00:56:35.432Z,19.67
2018-03-07T00:59:03.552Z,21.12
2018-03-07T01:01:31.778Z,19.15
2018-03-07T01:04:00.130Z,16.67
2018-03-07T01:06:28.228Z,17.33
2018-03-07T01:08:56.414Z,21.55
2018-03-07T01:11:24.626Z,18.25
2018-03-07T01:13:52.850Z,17.48
2018-03-07T01:16:21.024Z,16.70
2018-03-07T01:18:49.368Z,18.23
2018-03-07T01:21:17.682Z,16.98
2018-03-07T01:23:46.029Z,16.37
2018-03-07T01:26:14.179Z,14.30
2018-03-07T01:28:42.511Z,15.40
2018-03-07T01:31:11.281Z,15.40
2018-03-07T01:33:39.626Z,16.17
2018-03-07T01:36:07.783Z,14.93
2018-03-07T01:38:36.942Z,13.55
2018-03-07T01:41:05.329Z,13.62
2018-03-07T01:43:33.606Z,14.77
2018-03-07T01:46:02.431Z,13.95
2018-03-07T01:48:31.336Z,13.25
2018-03-07T01:50:59.496Z,13.52
2018-03-07T01:53:27.734Z,13.00
2018-03-07T01:55:55.945Z,12.45
2018-03-07T01:58:24.278Z,12.73
2018-03-07T02:00:53.215Z,10.48
2018-03-07T02:03:21.554Z,10.07
2018-03-07T02:05:50.702Z,12.25
2018-03-07T02:08:19.055Z,11.77
2018-03-07T02:10:48.169Z,10.77
2018-03-07T02:13:16.500Z,11.57
2018-03-07T02:15:44.431Z,11.00
2018-03-07T02:18:12.581Z,10.27
2018-03-07T02:20:40.918Z,10.55
2018-03-07T02:23:09.138Z,10.40
2018-03-07T02:25:37.469Z,11.52
2018-03-07T02:28:05.707Z,11.63
2018-03-07T02:30:34.028Z,10.32
2018-03-07T02:33:02.390Z,7.90
2018-03-07T02:35:31.381Z,8.98
2018-03-07T02:37:59.729Z,8.00
2018-03-07T02:40:27.829Z,8.18
2018-03-07T02:42:55.986Z,6.55
2018-03-07T02:45:24.389Z,7.70
2018-03-07T02:47:53.323Z,6.75
2018-03-07T02:50:21.559Z,7.00
2018-03-07T02:52:49.721Z,6.70
2018-03-07T02:55:18.009Z,7.20
2018-03-07T02:57:46.380Z,8.38
2018-03-07T03:00:15.368Z,7.80
2018-03-07T03:02:43.746Z,7.12
2018-03-07T03:05:12.218Z,7.53
2018-03-07T03:07:40.904Z,7.40
2018-03-07T03:10:09.187Z,6.80
2018-03-07T03:12:37.423Z,9.15
2018-03-07T03:15:05.743Z,7.80
2018-03-07T03:17:34.112Z,8.00
2018-03-07T03:20:02.508Z,7.47
2018-03-07T03:22:30.835Z,7.53
2018-03-07T03:24:58.842Z,6.20
2018-03-07T03:27:26.925Z,7.32
2018-03-07T03:29:55.098Z,6.60
2018-03-07T03:32:23.159Z,7.28
2018-03-07T03:34:51.229Z,6.10
2018-03-07T03:37:19.606Z,8.15
2018-03-07T03:39:47.578Z,6.93
2018-03-07T03:42:15.752Z,7.85
2018-03-07T03:44:43.832Z,6.80
2018-03-07T03:47:11.891Z,7.00
2018-03-07T03:49:39.969Z,6.82
2018-03-07T03:52:08.036Z,6.97
2018-03-07T03:54:36.719Z,7.37
2018-03-07T03:57:04.789Z,7.10
2018-03-07T03:59:32.864Z,7.22
2018-03-07T04:02:00.938Z,7.70
2018-03-07T04:04:29.015Z,7.70
2018-03-07T04:06:57.898Z,8.30
2018-03-07T04:09:25.969Z,8.55
2018-03-07T04:11:54.035Z,8.52
2018-03-07T04:14:22.106Z,8.25
2018-03-07T04:16:50.145Z,10.88
2018-03-07T04:19:18.260Z,10.10
2018-03-07T04:21:46.421Z,9.40
2018-03-07T04:24:14.492Z,9.35
2018-03-07T04:26:42.568Z,9.07
2018-03-07T04:29:10.750Z,9.20
2018-03-07T04:31:38.912Z,9.23
2018-03-07T04:34:07.495Z,9.60
2018-03-07T04:36:35.678Z,9.77
2018-03-07T04:39:03.948Z,9.60
2018-03-07T04:41:32.119Z,9.55
2018-03-07T04:44:00.161Z,8.63
2018-03-07T04:46:28.373Z,9.25
2018-03-07T04:48:57.358Z,8.80
2018-03-07T04:51:25.321Z,11.45
2018-03-07T04:53:53.393Z,10.30
2018-03-07T04:56:21.578Z,10.95
2018-03-07T04:58:49.858Z,10.85
2018-03-07T05:01:18.028Z,11.00
2018-03-07T05:03:46.191Z,12.55
2018-03-07T05:06:14.367Z,10.15
2018-03-07T05:08:42.540Z,10.00
2018-03-07T05:11:10.608Z,11.27
2018-03-07T05:13:38.678Z,11.60
2018-03-07T05:16:07.888Z,11.38
2018-03-07T05:18:36.061Z,12.30
2018-03-07T05:21:04.233Z,13.15
2018-03-07T05:23:32.398Z,13.43
2018-03-07T05:26:00.573Z,13.43
2018-03-07T05:28:28.754Z,11.50
2018-03-07T05:30:56.916Z,11.43
2018-03-07T05:33:24.993Z,13.13
2018-03-07T05:35:53.069Z,12.18
2018-03-07T05:38:21.235Z,10.13
2018-03-07T05:40:49.302Z,14.02
2018-03-07T05:43:18.307Z,10.50
2018-03-07T05:45:47.299Z,14.07
2018-03-07T05:48:15.358Z,13.48
2018-03-07T05:50:43.546Z,15.25
2018-03-07T05:53:11.496Z,13.80
2018-03-07T05:55:39.585Z,13.18
2018-03-07T05:58:07.747Z,13.65
2018-03-07T06:00:35.926Z,14.45
2018-03-07T06:03:04.099Z,13.20
2018-03-07T06:05:32.166Z,11.50
2018-03-07T06:08:00.451Z,11.23
2018-03-07T06:10:28.625Z,10.13
2018-03-07T06:12:56.798Z,12.68
2018-03-07T06:15:24.960Z,10.27
2018-03-07T06:17:53.852Z,8.60
2018-03-07T06:20:21.922Z,7.60
2018-03-07T06:22:50.105Z,8.35
2018-03-07T06:25:18.180Z,6.60
2018-03-07T06:27:46.341Z,6.07
2018-03-07T06:30:14.413Z,7.47
2018-03-07T06:32:42.481Z,5.60
2018-03-07T06:35:10.564Z,6.25
2018-03-07T06:37:39.248Z,4.53
2018-03-07T06:40:07.922Z,5.45
2018-03-07T06:42:35.996Z,6.35
2018-03-07T06:45:04.785Z,4.47
2018-03-07T06:47:32.866Z,6.60
2018-03-07T06:50:01.026Z,11.60
2018-03-07T06:52:29.208Z,13.65
2018-03-07T06:54:57.270Z,14.68
2018-03-07T06:57:25.352Z,15.93
2018-03-07T06:59:53.519Z,17.20
2018-03-07T07:02:21.688Z,19.08
2018-03-07T07:04:49.763Z,18.80
2018-03-07T07:07:17.937Z,19.50
2018-03-07T07:09:46.119Z,20.65
2018-03-07T07:12:14.291Z,20.02
2018-03-07T07:14:42.170Z,21.25
2018-03-07T07:17:11.684Z,18.95
2018-03-07T07:19:40.439Z,9.77
2018-03-07T07:22:08.544Z,4.12
2018-03-07T07:24:37.503Z,4.68
2018-03-07T07:27:05.790Z,5.07
2018-03-07T07:29:34.579Z,7.05
2018-03-07T07:32:02.738Z,7.75
2018-03-07T07:34:30.914Z,14.35
2018-03-07T07:36:59.199Z,14.18
2018-03-07T07:39:27.362Z,12.57
2018-03-07T07:41:55.650Z,13.45
2018-03-07T07:44:24.322Z,12.00
2018-03-07T07:46:52.509Z,9.55
2018-03-07T07:49:20.670Z,12.18
2018-03-07T07:51:48.848Z,12.60
2018-03-07T07:54:17.130Z,11.85
2018-03-07T07:56:45.407Z,9.85
2018-03-07T07:59:13.683Z,9.63
2018-03-07T08:01:41.958Z,8.05
2018-03-07T08:04:10.122Z,8.02
2018-03-07T08:06:38.293Z,5.35
2018-03-07T08:09:07.297Z,7.80
2018-03-07T08:11:35.465Z,8.55
2018-03-07T08:14:03.634Z,10.50
2018-03-07T08:16:31.819Z,5.60
2018-03-07T08:18:59.985Z,5.87
2018-03-07T08:21:29.189Z,5.00
2018-03-07T08:23:57.355Z,5.37
2018-03-07T08:26:26.254Z,5.57
2018-03-07T08:28:54.418Z,5.85
2018-03-07T08:31:22.592Z,5.85
2018-03-07T08:33:50.663Z,10.50
2018-03-07T08:36:18.947Z,12.48
2018-03-07T08:38:47.223Z,13.30
2018-03-07T08:41:15.390Z,18.58
2018-03-07T08:43:44.070Z,18.60
2018-03-07T08:46:12.248Z,16.75
2018-03-07T08:48:40.434Z,28.75
2018-03-07T08:51:10.027Z,31.10
2018-03-07T08:53:38.200Z,42.03
2018-03-07T08:56:06.382Z,44.25
2018-03-07T08:58:34.544Z,41.15
2018-03-07T09:01:03.646Z,49.88
2018-03-07T09:03:31.927Z,31.85
2018-03-07T09:06:00.089Z,18.10
2018-03-07T09:08:29.880Z,13.68
2018-03-07T09:11:00.472Z,14.50
2018-03-07T09:13:29.390Z,20.55
2018-03-07T09:15:57.314Z,19.23
2018-03-07T09:18:26.183Z,12.90
2018-03-07T09:20:54.466Z,15.50
2018-03-07T09:23:23.247Z,15.57
2018-03-07T09:25:51.415Z,19.40
2018-03-07T09:28:19.589Z,17.17
2018-03-07T09:30:47.876Z,16.37
2018-03-07T09:33:16.044Z,13.30
2018-03-07T09:35:44.214Z,16.33
2018-03-07T09:38:13.001Z,14.30
2018-03-07T09:40:42.611Z,14.10
2018-03-07T09:43:10.791Z,11.65
2018-03-07T09:45:38.854Z,14.77
2018-03-07T09:48:07.537Z,11.98
2018-03-07T09:50:35.753Z,8.52
2018-03-07T09:53:03.882Z,8.00
2018-03-07T09:55:32.785Z,6.90
2018-03-07T09:58:01.061Z,8.77
2018-03-07T10:00:29.336Z,7.53
2018-03-07T10:02:57.613Z,6.57
2018-03-07T10:05:25.779Z,3.70
2018-03-07T10:07:53.847Z,3.13
2018-03-07T10:10:22.022Z,2.50
2018-03-07T10:12:50.306Z,2.00
2018-03-07T10:15:18.470Z,1.63
2018-03-07T10:17:46.755Z,1.97
2018-03-07T10:20:16.465Z,1.90
2018-03-07T10:22:44.611Z,1.50
2018-03-07T10:25:13.722Z,2.13
2018-03-07T10:27:42.010Z,1.33
2018-03-07T10:30:10.175Z,1.50
2018-03-07T10:32:38.458Z,1.87
2018-03-07T10:35:06.657Z,1.53
2018-03-07T10:37:34.796Z,1.20
2018-03-07T10:40:02.971Z,1.27
2018-03-07T10:42:31.140Z,1.40
2018-03-07T10:44:59.313Z,1.87
2018-03-07T10:47:27.603Z,2.47
2018-03-07T10:49:55.768Z,2.00
2018-03-07T10:52:26.676Z,1.97
2018-03-07T10:54:54.989Z,2.00
2018-03-07T10:57:23.872Z,2.10
2018-03-07T10:59:53.474Z,1.50
2018-03-07T11:02:21.762Z,1.80
2018-03-07T11:04:50.011Z,1.67
2018-03-07T11:07:18.717Z,1.40
2018-03-07T11:09:47.601Z,2.27
2018-03-07T11:12:15.774Z,2.50
2018-03-07T11:14:44.755Z,1.50
2018-03-07T11:17:12.737Z,2.33
2018-03-07T11:19:41.626Z,1.60
2018-03-07T11:22:09.913Z,1.90
2018-03-07T11:24:38.074Z,1.30
2018-03-07T11:27:07.687Z,1.70
2018-03-07T11:29:35.858Z,2.23
2018-03-07T11:32:04.130Z,1.67
2018-03-07T11:34:32.419Z,1.43
2018-03-07T11:37:00.581Z,1.20
2018-03-07T11:39:29.380Z,1.27
2018-03-07T11:41:57.542Z,1.40
2018-03-07T11:44:25.677Z,1.40
2018-03-07T11:46:53.787Z,1.00
2018-03-07T11:49:21.962Z,1.37
2018-03-07T11:51:50.136Z,1.20
2018-03-07T11:54:18.421Z,1.50
2018-03-07T11:56:47.415Z,2.00
2018-03-07T11:59:15.690Z,1.23
2018-03-07T12:01:43.958Z,1.20
2018-03-07T12:04:12.130Z,0.90
2018-03-07T12:06:40.312Z,1.30
2018-03-07T12:09:08.589Z,1.50
2018-03-07T12:11:38.399Z,1.47
2018-03-07T12:14:06.471Z,1.47
2018-03-07T12:16:34.431Z,1.50
2018-03-07T12:19:02.606Z,1.20
2018-03-07T12:21:31.504Z,1.40
2018-03-07T12:23:59.566Z,1.77
2018-03-07T12:26:27.737Z,1.43
2018-03-07T12:28:55.998Z,1.33
2018-03-07T12:31:24.082Z,1.50
2018-03-07T12:33:52.069Z,1.83
2018-03-07T12:36:19.998Z,1.47
2018-03-07T12:38:47.910Z,1.80
2018-03-07T12:41:16.788Z,1.80
2018-03-07T12:43:45.166Z,1.33
2018-03-07T12:46:15.991Z,1.43
2018-03-07T12:48:44.068Z,1.40
2018-03-07T12:51:12.247Z,1.97
2018-03-07T12:53:40.524Z,1.10
2018-03-07T12:56:08.800Z,1.53
2018-03-07T12:58:37.377Z,2.13
2018-03-07T13:01:05.560Z,1.60
2018-03-07T13:03:34.548Z,1.63
2018-03-07T13:06:02.714Z,1.70
2018-03-07T13:08:30.780Z,1.70
2018-03-07T13:10:58.851Z,1.40
2018-03-07T13:13:27.028Z,1.80
2018-03-07T13:15:55.130Z,1.27
2018-03-07T13:18:23.912Z,1.50
2018-03-07T13:20:52.697Z,1.47
2018-03-07T13:23:21.388Z,1.40
2018-03-07T13:25:50.105Z,1.73
2018-03-07T13:28:18.117Z,1.93
2018-03-07T13:30:46.290Z,1.43
2018-03-07T13:33:14.462Z,1.60
2018-03-07T13:35:43.249Z,1.40
2018-03-07T13:38:11.536Z,1.33
2018-03-07T13:40:39.697Z,1.60
2018-03-07T13:43:08.590Z,0.97
2018-03-07T13:45:36.538Z,1.43
2018-03-07T13:48:04.630Z,1.30
2018-03-07T13:50:32.804Z,1.27
2018-03-07T13:53:00.877Z,1.20
2018-03-07T13:55:29.159Z,1.30
2018-03-07T13:57:57.321Z,1.03
2018-03-07T14:00:25.497Z,1.30
2018-03-07T14:02:53.675Z,1.50
2018-03-07T14:05:21.856Z,1.53
2018-03-07T14:07:50.129Z,1.03
2018-03-07T14:10:18.408Z,1.13
2018-03-07T14:12:46.569Z,1.57
2018-03-07T14:15:14.740Z,1.60
2018-03-07T14:17:42.811Z,1.73
2018-03-07T14:20:10.884Z,1.00
2018-03-07T14:22:41.729Z,0.90
2018-03-07T14:25:10.005Z,1.20
2018-03-07T14:27:38.167Z,1.30
2018-03-07T14:30:06.976Z,1.20
2018-03-07T14:32:36.664Z,1.17
2018-03-07T14:35:04.844Z,1.17
2018-03-07T14:37:33.011Z,1.53
2018-03-07T14:40:00.968Z,1.27
2018-03-07T14:42:29.056Z,1.43
2018-03-07T14:44:57.230Z,1.33
2018-03-07T14:47:25.403Z,1.30
2018-03-07T14:49:53.575Z,1.60
2018-03-07T14:52:21.745Z,1.10
2018-03-07T14:54:49.918Z,1.30
2018-03-07T14:57:18.092Z,1.20
2018-03-07T14:59:46.380Z,1.63
2018-03-07T15:02:15.261Z,1.50
2018-03-07T15:04:43.433Z,1.70
2018-03-07T15:07:11.458Z,1.50
2018-03-07T15:09:39.582Z,1.63
2018-03-07T15:12:07.860Z,2.00
2018-03-07T15:14:36.021Z,1.63
2018-03-07T15:17:04.813Z,2.10
2018-03-07T15:19:33.496Z,2.27
2018-03-07T15:22:02.388Z,2.03
2018-03-07T15:24:31.239Z,1.87
2018-03-07T15:26:59.347Z,1.97
2018-03-07T15:29:34.382Z,1.67
2018-03-07T15:32:02.457Z,1.57
2018-03-07T15:34:30.740Z,2.20
2018-03-07T15:36:58.902Z,2.17
2018-03-07T15:39:27.075Z,2.30
2018-03-07T15:41:55.262Z,1.70
2018-03-07T15:44:23.422Z,1.97
2018-03-07T15:46:51.467Z,21.83
2018-03-07T15:49:19.667Z,28.00
2018-03-07T15:51:47.976Z,31.87
2018-03-07T15:54:16.946Z,33.13
2018-03-07T15:56:47.633Z,34.50
2018-03-07T15:59:16.680Z,35.07
2018-03-07T16:01:45.878Z,36.27
2018-03-07T16:04:14.751Z,39.27
2018-03-07T16:06:44.358Z,37.87
2018-03-07T16:09:12.535Z,41.87
2018-03-07T16:11:42.249Z,38.77
2018-03-07T16:14:11.135Z,40.00
2018-03-07T16:16:40.024Z,41.63
2018-03-07T16:19:08.909Z,45.20
2018-03-07T16:21:37.086Z,41.30
2018-03-07T16:24:05.364Z,45.43
2018-03-07T16:26:33.310Z,43.60
2018-03-07T16:29:01.504Z,40.90
2018-03-07T16:31:30.291Z,44.07
2018-03-07T16:33:58.678Z,43.70
2018-03-07T16:36:26.955Z,44.20
2018-03-07T16:38:55.121Z,44.23
2018-03-07T16:41:23.916Z,44.83
2018-03-07T16:43:52.080Z,45.13
2018-03-07T16:46:20.765Z,42.10
2018-03-07T16:48:49.050Z,46.27
2018-03-07T16:51:17.116Z,47.03
2018-03-07T16:53:45.398Z,47.80
2018-03-07T16:56:14.378Z,45.23
2018-03-07T16:58:42.557Z,46.43
2018-03-07T17:01:10.726Z,47.17
2018-03-07T17:03:38.908Z,47.67
2018-03-07T17:06:07.187Z,45.37
2018-03-07T17:08:36.076Z,46.43
2018-03-07T17:11:05.775Z,47.40
2018-03-07T17:13:37.030Z,47.55
2018-03-07T17:16:05.923Z,45.67
2018-03-07T17:18:34.914Z,44.25
2018-03-07T17:21:03.076Z,46.43
2018-03-07T17:23:31.363Z,47.13
2018-03-07T17:26:00.284Z,50.25
2018-03-07T17:28:28.735Z,43.85
2018-03-07T17:30:58.227Z,45.70
2018-03-07T17:33:26.516Z,45.63
2018-03-07T17:35:55.498Z,44.47
2018-03-07T17:38:23.672Z,44.28
2018-03-07T17:40:51.844Z,45.42
2018-03-07T17:43:21.053Z,44.77
2018-03-07T17:45:50.045Z,43.83
2018-03-07T17:48:19.645Z,40.20
2018-03-07T17:50:47.927Z,47.15
2018-03-07T17:53:16.094Z,41.13
2018-03-07T17:55:44.376Z,42.60
2018-03-07T17:58:13.258Z,42.03
2018-03-07T18:00:41.647Z,46.43
2018-03-07T18:03:10.626Z,42.92
2018-03-07T18:05:38.799Z,42.17
2018-03-07T18:08:06.981Z,41.85
2018-03-07T18:10:35.146Z,46.50
2018-03-07T18:13:03.319Z,41.78
2018-03-07T18:15:31.553Z,44.65
2018-03-07T18:17:59.667Z,41.92
2018-03-07T18:20:27.840Z,41.50
2018-03-07T18:22:56.019Z,44.57
2018-03-07T18:25:24.406Z,43.20
2018-03-07T18:27:53.281Z,41.92
2018-03-07T18:30:21.674Z,43.58
2018-03-07T18:32:50.668Z,42.05
2018-03-07T18:35:19.657Z,47.28
2018-03-07T18:37:48.539Z,45.33
2018-03-07T18:40:16.709Z,44.70
2018-03-07T18:42:45.100Z,44.92
2018-03-07T18:45:14.194Z,46.70
2018-03-07T18:47:42.982Z,45.88
2018-03-07T18:50:11.259Z,45.50
2018-03-07T18:52:40.244Z,47.78
2018-03-07T18:55:10.070Z,43.55
2018-03-07T18:57:41.812Z,45.28
2018-03-07T19:00:09.989Z,42.58
2018-03-07T19:02:38.053Z,43.38
2018-03-07T19:05:07.253Z,46.35
2018-03-07T19:07:36.254Z,46.03
2018-03-07T19:10:05.863Z,48.63
2018-03-07T19:12:34.443Z,47.62
2018-03-07T19:15:03.643Z,46.92
2018-03-07T19:17:32.634Z,46.97
2018-03-07T19:20:00.901Z,48.90
2018-03-07T19:22:29.184Z,51.75
2018-03-07T19:24:57.462Z,47.13
2018-03-07T19:27:27.882Z,47.05
2018-03-07T19:29:56.270Z,48.60
2018-03-07T19:32:25.737Z,54.45
2018-03-07T19:34:53.937Z,51.40
2018-03-07T19:37:22.221Z,56.65
2018-03-07T19:39:51.099Z,60.60
2018-03-07T19:42:19.382Z,59.03
2018-03-07T19:44:47.555Z,60.85
2018-03-07T19:47:15.725Z,61.42
2018-03-07T19:49:43.900Z,59.25
2018-03-07T19:52:12.581Z,65.70
2018-03-07T19:54:40.863Z,61.58
2018-03-07T19:57:09.650Z,60.90
2018-03-07T19:59:37.932Z,62.60
2018-03-07T20:02:08.757Z,60.70
2018-03-07T20:04:37.044Z,61.92
2018-03-07T20:07:05.211Z,62.13
2018-03-07T20:09:33.379Z,65.28
2018-03-07T20:12:01.554Z,64.80
2018-03-07T20:14:40.545Z,69.40
2018-03-07T20:17:21.960Z,67.30
2018-03-07T20:19:50.137Z,65.20
2018-03-07T20:22:20.882Z,62.83
2018-03-07T20:24:49.767Z,65.32
2018-03-07T20:27:17.940Z,59.85
2018-03-07T20:29:46.117Z,66.72
2018-03-07T20:32:14.389Z,66.78
2018-03-07T20:34:43.082Z,65.03
2018-03-07T20:37:11.961Z,68.18
2018-03-07T20:39:40.849Z,67.15
2018-03-07T20:42:09.136Z,68.37
2018-03-07T20:44:37.299Z,68.32
2018-03-07T20:47:07.121Z,71.57
2018-03-07T20:49:35.289Z,67.40
2018-03-07T20:52:03.457Z,66.70
2018-03-07T20:54:32.251Z,64.10
2018-03-07T20:57:00.421Z,67.40
2018-03-07T20:59:28.707Z,63.40
2018-03-07T21:01:57.795Z,71.12
2018-03-07T21:04:26.172Z,65.28
2018-03-07T21:06:54.341Z,67.60
2018-03-07T21:09:22.622Z,66.07
2018-03-07T21:11:50.893Z,66.07
2018-03-07T21:14:19.283Z,72.90
2018-03-07T21:16:47.549Z,65.53
2018-03-07T21:19:15.838Z,71.85
2018-03-07T21:21:44.920Z,66.53
2018-03-07T21:24:13.092Z,69.07
2018-03-07T21:26:41.277Z,72.53
2018-03-07T21:29:09.438Z,65.87
2018-03-07T21:31:37.611Z,66.07
2018-03-07T21:34:05.907Z,66.95
2018-03-07T21:36:34.880Z,65.18
2018-03-07T21:39:05.823Z,69.55
2018-03-07T21:41:35.195Z,61.97
2018-03-07T21:44:04.942Z,66.57
2018-03-07T21:46:33.106Z,65.05
2018-03-07T21:49:01.282Z,65.62
2018-03-07T21:51:29.351Z,66.03
2018-03-07T21:53:57.533Z,68.32
2018-03-07T21:56:25.813Z,62.17
2018-03-07T21:58:55.311Z,67.32
2018-03-07T22:01:23.476Z,58.58
2018-03-07T22:03:51.654Z,53.95
2018-03-07T22:06:19.827Z,58.92
2018-03-07T22:08:48.508Z,61.83
2018-03-07T22:11:17.299Z,59.83
2018-03-07T22:13:46.086Z,59.65
2018-03-07T22:16:14.371Z,61.60
2018-03-07T22:18:42.646Z,55.78
2018-03-07T22:21:10.811Z,56.88
2018-03-07T22:23:38.982Z,57.50
2018-03-07T22:26:07.261Z,64.97
2018-03-07T22:28:35.434Z,57.60
2018-03-07T22:31:04.231Z,61.30
2018-03-07T22:33:32.393Z,57.92
2018-03-07T22:36:00.681Z,56.08
2018-03-07T22:38:29.457Z,57.03
2018-03-07T22:40:59.176Z,51.78
2018-03-07T22:43:27.456Z,55.38
2018-03-07T22:45:55.617Z,51.05
2018-03-07T22:48:23.902Z,54.40
2018-03-07T22:50:52.076Z,53.15
2018-03-07T22:53:20.265Z,52.05
2018-03-07T22:55:49.127Z,52.85
2018-03-07T22:58:17.308Z,52.92
2018-03-07T23:00:49.379Z,47.85
2018-03-07T23:03:17.442Z,55.15
2018-03-07T23:05:46.197Z,48.85
2018-03-07T23:08:14.326Z,55.22
2018-03-07T23:10:42.469Z,47.72
2018-03-07T23:13:10.545Z,52.05
2018-03-07T23:15:38.614Z,52.25
2018-03-07T23:18:08.218Z,50.40
2018-03-07T23:20:36.404Z,49.72
2018-03-07T23:23:04.466Z,49.03
2018-03-07T23:25:34.079Z,51.63
2018-03-07T23:28:02.142Z,52.78
2018-03-07T23:30:30.112Z,53.25
2018-03-07T23:32:58.397Z,48.92
2018-03-07T23:35:26.457Z,45.60
2018-03-07T23:37:54.642Z,48.30
2018-03-07T23:40:22.803Z,48.25
2018-03-07T23:42:50.877Z,44.90
2018-03-07T23:45:19.060Z,49.15
2018-03-07T23:47:47.120Z,45.28
2018-03-07T23:50:15.287Z,43.78
2018-03-07T23:52:43.486Z,49.45
2018-03-07T23:55:12.359Z,46.25
2018-03-07T23:57:40.540Z,40.20
